sensor_id;sensor_type;location;lat;lon;timestamp;P1;durP1;ratioP1;P2;durP2;ratioP2
68951;SDS011;56000;51.146;17.112;2022-10-31T00:01:42;20.60;;;11.80;;
68951;SDS011;56000;51.146;17.112;2022-10-31T00:04:13;17.60;;;11.00;;
68951;SDS011;56000;51.146;17.112;2022-10-31T00:06:42;20.20;;;11.20;;
68951;SDS011;56000;51.146;17.112;2022-10-31T00:09:12;20.50;;;12.00;;
68951;SDS011;56000;51.146;17.112;2022-10-31T00:11:42;19.50;;;11.90;;
68951;SDS011;56000;51.146;17.112;2022-10-31T00:14:11;21.70;;;12.40;;
68951;SDS011;56000;51.146;17.112;2022-10-31T00:16:41;26.90;;;12.80;;
68951;SDS011;56000;51.146;17.112;2022-10-31T00:19:10;20.00;;;12.50;;
68951;SDS011;56000;51.146;17.112;2022-10-31T00:21:40;22.10;;;12.70;;
68951;SDS011;56000;51.146;17.112;2022-10-31T00:24:09;23.00;;;11.20;;
68951;SDS011;56000;51.146;17.112;2022-10-31T00:26:39;21.00;;;11.10;;
68951;SDS011;56000;51.146;17.112;2022-10-31T00:29:09;20.80;;;12.60;;
68951;SDS011;56000;51.146;17.112;2022-10-31T00:31:40;15.60;;;9.60;;
68951;SDS011;56000;51.146;17.112;2022-10-31T00:34:10;17.00;;;9.90;;
68951;SDS011;56000;51.146;17.112;2022-10-31T00:36:39;18.10;;;10.90;;
68951;SDS011;56000;51.146;17.112;2022-10-31T00:39:12;23.30;;;11.70;;
68951;SDS011;56000;51.146;17.112;2022-10-31T00:41:42;18.60;;;11.00;;
68951;SDS011;56000;51.146;17.112;2022-10-31T00:44:13;23.20;;;10.80;;
68951;SDS011;56000;51.146;17.112;2022-10-31T00:46:42;17.60;;;10.50;;
68951;SDS011;56000;51.146;17.112;2022-10-31T00:49:12;17.30;;;9.30;;
68951;SDS011;56000;51.146;17.112;2022-10-31T00:51:42;16.70;;;10.60;;
68951;SDS011;56000;51.146;17.112;2022-10-31T00:54:11;18.80;;;11.30;;
68951;SDS011;56000;51.146;17.112;2022-10-31T00:56:41;18.10;;;10.30;;
68951;SDS011;56000;51.146;17.112;2022-10-31T00:59:10;20.50;;;11.40;;
68951;SDS011;56000;51.146;17.112;2022-10-31T01:01:39;19.70;;;10.50;;
68951;SDS011;56000;51.146;17.112;2022-10-31T01:04:09;15.70;;;8.30;;
68951;SDS011;56000;51.146;17.112;2022-10-31T01:06:39;18.50;;;9.90;;
68951;SDS011;56000;51.146;17.112;2022-10-31T01:09:08;12.60;;;8.40;;
68951;SDS011;56000;51.146;17.112;2022-10-31T01:11:38;18.80;;;11.60;;
68951;SDS011;56000;51.146;17.112;2022-10-31T01:14:09;17.60;;;10.70;;
68951;SDS011;56000;51.146;17.112;2022-10-31T01:16:38;25.20;;;10.60;;
68951;SDS011;56000;51.146;17.112;2022-10-31T01:19:08;25.60;;;11.60;;
68951;SDS011;56000;51.146;17.112;2022-10-31T01:21:37;23.10;;;11.90;;
68951;SDS011;56000;51.146;17.112;2022-10-31T01:24:08;27.10;;;11.40;;
68951;SDS011;56000;51.146;17.112;2022-10-31T01:26:39;19.00;;;9.70;;
68951;SDS011;56000;51.146;17.112;2022-10-31T01:29:09;23.70;;;11.10;;
68951;SDS011;56000;51.146;17.112;2022-10-31T01:31:39;19.00;;;10.30;;
68951;SDS011;56000;51.146;17.112;2022-10-31T01:34:09;19.50;;;11.30;;
68951;SDS011;56000;51.146;17.112;2022-10-31T01:36:43;20.30;;;11.40;;
68951;SDS011;56000;51.146;17.112;2022-10-31T01:39:15;20.50;;;11.60;;
68951;SDS011;56000;51.146;17.112;2022-10-31T01:41:47;18.10;;;10.70;;
68951;SDS011;56000;51.146;17.112;2022-10-31T01:47:39;17.90;;;9.30;;
68951;SDS011;56000;51.146;17.112;2022-10-31T01:50:24;19.60;;;10.40;;
68951;SDS011;56000;51.146;17.112;2022-10-31T01:52:59;17.60;;;11.10;;
68951;SDS011;56000;51.146;17.112;2022-10-31T01:55:31;14.30;;;8.80;;
68951;SDS011;56000;51.146;17.112;2022-10-31T01:58:05;17.30;;;9.90;;
68951;SDS011;56000;51.146;17.112;2022-10-31T02:00:37;19.90;;;10.20;;
68951;SDS011;56000;51.146;17.112;2022-10-31T02:03:08;14.30;;;9.20;;
68951;SDS011;56000;51.146;17.112;2022-10-31T02:05:38;14.80;;;9.30;;
68951;SDS011;56000;51.146;17.112;2022-10-31T02:08:11;18.20;;;10.40;;
68951;SDS011;56000;51.146;17.112;2022-10-31T02:10:50;21.60;;;12.20;;
68951;SDS011;56000;51.146;17.112;2022-10-31T02:13:20;20.90;;;11.70;;
68951;SDS011;56000;51.146;17.112;2022-10-31T02:15:51;21.00;;;12.30;;
68951;SDS011;56000;51.146;17.112;2022-10-31T02:18:24;23.90;;;12.10;;
68951;SDS011;56000;51.146;17.112;2022-10-31T02:21:00;28.90;;;12.40;;
68951;SDS011;56000;51.146;17.112;2022-10-31T02:26:55;21.90;;;12.00;;
68951;SDS011;56000;51.146;17.112;2022-10-31T02:29:52;20.90;;;9.50;;
68951;SDS011;56000;51.146;17.112;2022-10-31T02:32:32;16.60;;;8.20;;
68951;SDS011;56000;51.146;17.112;2022-10-31T02:35:12;16.10;;;8.90;;
68951;SDS011;56000;51.146;17.112;2022-10-31T02:37:55;17.40;;;9.00;;
68951;SDS011;56000;51.146;17.112;2022-10-31T02:40:32;27.30;;;12.70;;
68951;SDS011;56000;51.146;17.112;2022-10-31T02:43:15;24.90;;;12.30;;
68951;SDS011;56000;51.146;17.112;2022-10-31T02:45:50;33.40;;;14.10;;
68951;SDS011;56000;51.146;17.112;2022-10-31T02:48:26;28.70;;;12.50;;
68951;SDS011;56000;51.146;17.112;2022-10-31T02:50:59;26.40;;;13.50;;
68951;SDS011;56000;51.146;17.112;2022-10-31T02:53:33;21.50;;;11.40;;
68951;SDS011;56000;51.146;17.112;2022-10-31T02:56:05;28.50;;;13.80;;
68951;SDS011;56000;51.146;17.112;2022-10-31T02:58:41;22.30;;;12.60;;
68951;SDS011;56000;51.146;17.112;2022-10-31T03:01:30;26.40;;;12.50;;
68951;SDS011;56000;51.146;17.112;2022-10-31T03:04:16;22.00;;;11.60;;
68951;SDS011;56000;51.146;17.112;2022-10-31T03:07:10;18.50;;;11.10;;
68951;SDS011;56000;51.146;17.112;2022-10-31T03:09:52;24.10;;;12.20;;
68951;SDS011;56000;51.146;17.112;2022-10-31T03:12:32;19.40;;;10.20;;
68951;SDS011;56000;51.146;17.112;2022-10-31T03:15:17;20.30;;;11.60;;
68951;SDS011;56000;51.146;17.112;2022-10-31T03:17:54;16.10;;;9.80;;
68951;SDS011;56000;51.146;17.112;2022-10-31T03:20:31;20.30;;;11.90;;
68951;SDS011;56000;51.146;17.112;2022-10-31T03:23:06;20.00;;;10.10;;
68951;SDS011;56000;51.146;17.112;2022-10-31T03:25:39;15.90;;;10.80;;
68951;SDS011;56000;51.146;17.112;2022-10-31T03:28:09;23.30;;;9.70;;
68951;SDS011;56000;51.146;17.112;2022-10-31T03:30:43;21.20;;;9.70;;
68951;SDS011;56000;51.146;17.112;2022-10-31T03:33:16;24.50;;;12.70;;
68951;SDS011;56000;51.146;17.112;2022-10-31T03:35:50;25.00;;;10.70;;
68951;SDS011;56000;51.146;17.112;2022-10-31T03:38:24;19.00;;;10.50;;
68951;SDS011;56000;51.146;17.112;2022-10-31T03:40:56;21.10;;;9.40;;
68951;SDS011;56000;51.146;17.112;2022-10-31T03:43:30;18.30;;;10.90;;
68951;SDS011;56000;51.146;17.112;2022-10-31T03:46:05;25.20;;;13.00;;
68951;SDS011;56000;51.146;17.112;2022-10-31T03:48:35;25.90;;;11.60;;
68951;SDS011;56000;51.146;17.112;2022-10-31T03:51:07;21.20;;;10.60;;
68951;SDS011;56000;51.146;17.112;2022-10-31T03:53:45;16.50;;;10.20;;
68951;SDS011;56000;51.146;17.112;2022-10-31T03:56:23;19.20;;;9.30;;
68951;SDS011;56000;51.146;17.112;2022-10-31T03:59:00;19.50;;;10.30;;
68951;SDS011;56000;51.146;17.112;2022-10-31T04:01:33;17.90;;;9.50;;
68951;SDS011;56000;51.146;17.112;2022-10-31T04:04:07;21.10;;;10.50;;
68951;SDS011;56000;51.146;17.112;2022-10-31T04:06:37;15.20;;;9.40;;
68951;SDS011;56000;51.146;17.112;2022-10-31T04:09:10;16.90;;;10.00;;
68951;SDS011;56000;51.146;17.112;2022-10-31T04:14:31;20.70;;;13.00;;
68951;SDS011;56000;51.146;17.112;2022-10-31T04:17:02;23.00;;;14.00;;
68951;SDS011;56000;51.146;17.112;2022-10-31T04:19:36;26.40;;;14.70;;
68951;SDS011;56000;51.146;17.112;2022-10-31T04:22:06;25.30;;;14.10;;
68951;SDS011;56000;51.146;17.112;2022-10-31T04:24:36;35.50;;;17.20;;
68951;SDS011;56000;51.146;17.112;2022-10-31T04:27:08;25.50;;;13.60;;
68951;SDS011;56000;51.146;17.112;2022-10-31T04:29:39;28.30;;;14.50;;
68951;SDS011;56000;51.146;17.112;2022-10-31T04:32:12;31.30;;;15.30;;
68951;SDS011;56000;51.146;17.112;2022-10-31T04:34:42;24.70;;;14.50;;
68951;SDS011;56000;51.146;17.112;2022-10-31T04:37:11;22.10;;;11.70;;
68951;SDS011;56000;51.146;17.112;2022-10-31T04:39:41;26.80;;;14.00;;
68951;SDS011;56000;51.146;17.112;2022-10-31T04:42:30;21.80;;;11.70;;
68951;SDS011;56000;51.146;17.112;2022-10-31T04:45:03;21.90;;;11.30;;
68951;SDS011;56000;51.146;17.112;2022-10-31T04:47:34;23.60;;;11.90;;
68951;SDS011;56000;51.146;17.112;2022-10-31T04:50:05;22.20;;;13.60;;
68951;SDS011;56000;51.146;17.112;2022-10-31T04:52:40;25.80;;;14.90;;
68951;SDS011;56000;51.146;17.112;2022-10-31T04:55:11;21.30;;;11.00;;
68951;SDS011;56000;51.146;17.112;2022-10-31T04:58:13;23.30;;;12.90;;
68951;SDS011;56000;51.146;17.112;2022-10-31T05:00:47;23.30;;;13.90;;
68951;SDS011;56000;51.146;17.112;2022-10-31T05:03:22;28.70;;;15.40;;
68951;SDS011;56000;51.146;17.112;2022-10-31T05:05:52;20.60;;;12.50;;
68951;SDS011;56000;51.146;17.112;2022-10-31T05:08:21;33.60;;;17.40;;
68951;SDS011;56000;51.146;17.112;2022-10-31T05:13:20;25.80;;;14.50;;
68951;SDS011;56000;51.146;17.112;2022-10-31T05:16:08;25.00;;;14.30;;
68951;SDS011;56000;51.146;17.112;2022-10-31T05:19:10;27.80;;;14.90;;
68951;SDS011;56000;51.146;17.112;2022-10-31T05:21:45;28.60;;;13.80;;
68951;SDS011;56000;51.146;17.112;2022-10-31T05:24:15;28.50;;;13.20;;
68951;SDS011;56000;51.146;17.112;2022-10-31T05:26:47;24.00;;;13.70;;
68951;SDS011;56000;51.146;17.112;2022-10-31T05:29:18;24.60;;;12.80;;
68951;SDS011;56000;51.146;17.112;2022-10-31T05:31:48;26.00;;;12.10;;
68951;SDS011;56000;51.146;17.112;2022-10-31T05:34:53;19.60;;;12.20;;
68951;SDS011;56000;51.146;17.112;2022-10-31T05:37:46;32.10;;;13.50;;
68951;SDS011;56000;51.146;17.112;2022-10-31T05:40:17;23.20;;;12.20;;
68951;SDS011;56000;51.146;17.112;2022-10-31T05:42:51;24.60;;;11.90;;
68951;SDS011;56000;51.146;17.112;2022-10-31T05:45:22;17.90;;;9.80;;
68951;SDS011;56000;51.146;17.112;2022-10-31T05:48:01;19.90;;;10.70;;
68951;SDS011;56000;51.146;17.112;2022-10-31T05:50:55;23.30;;;10.60;;
68951;SDS011;56000;51.146;17.112;2022-10-31T05:53:26;25.70;;;12.00;;
68951;SDS011;56000;51.146;17.112;2022-10-31T05:55:56;19.40;;;9.90;;
68951;SDS011;56000;51.146;17.112;2022-10-31T05:58:26;22.30;;;12.30;;
68951;SDS011;56000;51.146;17.112;2022-10-31T06:01:02;30.20;;;13.60;;
68951;SDS011;56000;51.146;17.112;2022-10-31T06:03:31;30.10;;;13.10;;
68951;SDS011;56000;51.146;17.112;2022-10-31T06:06:04;26.30;;;12.90;;
68951;SDS011;56000;51.146;17.112;2022-10-31T06:08:37;25.10;;;12.60;;
68951;SDS011;56000;51.146;17.112;2022-10-31T06:11:08;23.00;;;13.00;;
68951;SDS011;56000;51.146;17.112;2022-10-31T06:14:04;25.50;;;12.40;;
68951;SDS011;56000;51.146;17.112;2022-10-31T06:16:45;27.80;;;12.80;;
68951;SDS011;56000;51.146;17.112;2022-10-31T06:19:35;22.80;;;11.10;;
68951;SDS011;56000;51.146;17.112;2022-10-31T06:22:05;26.30;;;12.90;;
68951;SDS011;56000;51.146;17.112;2022-10-31T06:24:35;21.20;;;12.10;;
68951;SDS011;56000;51.146;17.112;2022-10-31T06:27:11;24.60;;;12.60;;
68951;SDS011;56000;51.146;17.112;2022-10-31T06:29:40;28.80;;;12.70;;
68951;SDS011;56000;51.146;17.112;2022-10-31T06:32:20;27.70;;;13.50;;
68951;SDS011;56000;51.146;17.112;2022-10-31T06:34:49;21.70;;;12.50;;
68951;SDS011;56000;51.146;17.112;2022-10-31T06:37:19;35.20;;;12.90;;
68951;SDS011;56000;51.146;17.112;2022-10-31T06:39:49;23.30;;;13.20;;
68951;SDS011;56000;51.146;17.112;2022-10-31T06:42:19;24.70;;;12.70;;
68951;SDS011;56000;51.146;17.112;2022-10-31T06:44:49;32.70;;;13.70;;
68951;SDS011;56000;51.146;17.112;2022-10-31T06:47:36;28.10;;;14.70;;
68951;SDS011;56000;51.146;17.112;2022-10-31T06:50:28;24.60;;;12.40;;
68951;SDS011;56000;51.146;17.112;2022-10-31T06:52:58;35.70;;;15.60;;
68951;SDS011;56000;51.146;17.112;2022-10-31T06:55:29;28.90;;;15.70;;
68951;SDS011;56000;51.146;17.112;2022-10-31T06:57:59;28.00;;;14.40;;
68951;SDS011;56000;51.146;17.112;2022-10-31T07:00:31;31.70;;;14.40;;
68951;SDS011;56000;51.146;17.112;2022-10-31T07:03:09;26.40;;;14.70;;
68951;SDS011;56000;51.146;17.112;2022-10-31T07:05:40;25.90;;;14.50;;
68951;SDS011;56000;51.146;17.112;2022-10-31T07:08:12;33.20;;;15.20;;
68951;SDS011;56000;51.146;17.112;2022-10-31T07:10:43;26.60;;;12.70;;
68951;SDS011;56000;51.146;17.112;2022-10-31T07:13:18;31.00;;;14.00;;
68951;SDS011;56000;51.146;17.112;2022-10-31T07:15:54;28.20;;;11.50;;
68951;SDS011;56000;51.146;17.112;2022-10-31T07:18:28;23.20;;;11.70;;
68951;SDS011;56000;51.146;17.112;2022-10-31T07:20:57;35.20;;;13.20;;
68951;SDS011;56000;51.146;17.112;2022-10-31T07:23:27;21.30;;;10.20;;
68951;SDS011;56000;51.146;17.112;2022-10-31T07:26:32;23.80;;;11.50;;
68951;SDS011;56000;51.146;17.112;2022-10-31T07:29:02;30.30;;;10.60;;
68951;SDS011;56000;51.146;17.112;2022-10-31T07:31:32;31.50;;;10.90;;
68951;SDS011;56000;51.146;17.112;2022-10-31T07:34:06;21.40;;;10.30;;
68951;SDS011;56000;51.146;17.112;2022-10-31T07:36:35;20.90;;;10.00;;
68951;SDS011;56000;51.146;17.112;2022-10-31T07:39:05;26.20;;;11.50;;
68951;SDS011;56000;51.146;17.112;2022-10-31T07:41:35;21.40;;;10.00;;
68951;SDS011;56000;51.146;17.112;2022-10-31T07:44:05;24.90;;;10.10;;
68951;SDS011;56000;51.146;17.112;2022-10-31T07:46:55;18.00;;;9.00;;
68951;SDS011;56000;51.146;17.112;2022-10-31T07:49:43;23.20;;;9.80;;
68951;SDS011;56000;51.146;17.112;2022-10-31T07:52:31;21.30;;;9.70;;
68951;SDS011;56000;51.146;17.112;2022-10-31T07:55:01;20.90;;;9.70;;
68951;SDS011;56000;51.146;17.112;2022-10-31T07:57:31;17.10;;;8.80;;
68951;SDS011;56000;51.146;17.112;2022-10-31T08:00:02;21.50;;;9.40;;
68951;SDS011;56000;51.146;17.112;2022-10-31T08:02:42;17.00;;;9.00;;
68951;SDS011;56000;51.146;17.112;2022-10-31T08:05:32;18.40;;;9.40;;
68951;SDS011;56000;51.146;17.112;2022-10-31T08:08:40;23.70;;;12.50;;
68951;SDS011;56000;51.146;17.112;2022-10-31T08:11:10;17.20;;;10.20;;
68951;SDS011;56000;51.146;17.112;2022-10-31T08:13:40;18.00;;;9.50;;
68951;SDS011;56000;51.146;17.112;2022-10-31T08:16:10;17.00;;;8.10;;
68951;SDS011;56000;51.146;17.112;2022-10-31T08:18:49;17.40;;;9.20;;
68951;SDS011;56000;51.146;17.112;2022-10-31T08:21:20;19.00;;;9.30;;
68951;SDS011;56000;51.146;17.112;2022-10-31T08:23:50;18.20;;;8.90;;
68951;SDS011;56000;51.146;17.112;2022-10-31T08:26:21;14.40;;;8.20;;
68951;SDS011;56000;51.146;17.112;2022-10-31T08:28:51;30.60;;;9.50;;
68951;SDS011;56000;51.146;17.112;2022-10-31T08:31:22;16.80;;;8.90;;
68951;SDS011;56000;51.146;17.112;2022-10-31T08:34:19;15.30;;;8.00;;
68951;SDS011;56000;51.146;17.112;2022-10-31T08:37:08;19.00;;;9.30;;
68951;SDS011;56000;51.146;17.112;2022-10-31T08:39:44;16.60;;;8.70;;
68951;SDS011;56000;51.146;17.112;2022-10-31T08:42:14;18.60;;;8.30;;
68951;SDS011;56000;51.146;17.112;2022-10-31T08:44:44;19.80;;;8.40;;
68951;SDS011;56000;51.146;17.112;2022-10-31T08:47:14;14.40;;;8.00;;
68951;SDS011;56000;51.146;17.112;2022-10-31T08:49:43;20.00;;;8.10;;
68951;SDS011;56000;51.146;17.112;2022-10-31T08:52:14;17.70;;;9.20;;
